Time;durP1;ratioP1;P1;durP2;ratioP2;P2;SDS_P1;SDS_P2;PMS_P1;PMS_P2;Temp;Humidity;BMP_temperature;BMP_pressure;BME280_temperature;BME280_humidity;BME280_pressure;Samples;Min_cycle;Max_cycle;Signal;HPM_P1;HPM_P2
2020/12/09 00:01:53;;;;;;;7.68;1.52;;;25.20;42.50;;;;;;4972642;28;20033;-65
2020/12/09 00:04:20;;;;;;;7.32;1.15;;;24.80;43.50;;;;;;4972691;28;20031;-65
2020/12/09 00:06:48;;;;;;;4.15;0.90;;;24.80;43.80;;;;;;4971865;28;20443;-63
2020/12/09 00:09:17;;;;;;;7.90;1.30;;;24.70;44.00;;;;;;4972883;28;20110;-63
2020/12/09 00:11:43;;;;;;;11.10;0.80;;;24.50;43.40;;;;;;4971457;28;20030;-65
2020/12/09 00:14:10;;;;;;;8.68;1.00;;;24.40;43.40;;;;;;4972991;28;20053;-65
2020/12/09 00:16:38;;;;;;;6.53;0.80;;;24.30;43.10;;;;;;4972645;28;20050;-64
2020/12/09 00:19:05;;;;;;;1.95;0.57;;;24.20;42.80;;;;;;4971434;28;20097;-63
2020/12/09 00:21:33;;;;;;;2.55;0.80;;;24.20;37.90;;;;;;4975963;28;20049;-64
2020/12/09 00:24:01;;;;;;;2.13;0.55;;;24.20;40.90;;;;;;4972514;28;20046;-66
2020/12/09 00:26:28;;;;;;;5.57;0.60;;;24.10;37.30;;;;;;4970540;28;20106;-64
2020/12/09 00:28:55;;;;;;;2.45;0.55;;;24.00;35.60;;;;;;4967859;28;20035;-64
2020/12/09 00:31:28;;;;;;;1.77;0.40;;;24.00;35.50;;;;;;4970776;28;20332;-64
2020/12/09 00:33:56;;;;;;;2.17;0.50;;;24.00;36.20;;;;;;4970937;28;20413;-64
2020/12/09 00:36:23;;;;;;;3.47;1.10;;;23.90;37.00;;;;;;4972918;28;20038;-63
2020/12/09 00:38:52;;;;;;;4.25;0.57;;;23.70;37.60;;;;;;4972374;28;20355;-67
2020/12/09 00:41:24;;;;;;;0.80;0.28;;;23.60;37.10;;;;;;4968595;28;20043;-67
2020/12/09 00:43:51;;;;;;;2.15;0.77;;;23.60;37.00;;;;;;4972298;28;20279;-66
2020/12/09 00:46:23;;;;;;;8.38;4.93;;;23.40;39.00;;;;;;4972464;28;20027;-66
2020/12/09 00:48:50;;;;;;;4.15;1.67;;;23.00;39.00;;;;;;4972465;28;20031;-68
2020/12/09 00:51:19;;;;;;;6.15;3.30;;;22.80;40.90;;;;;;4980994;28;20521;-67
2020/12/09 00:53:46;;;;;;;6.55;1.30;;;22.50;42.80;;;;;;4961507;28;20031;-67
2020/12/09 00:56:13;;;;;;;1.85;0.63;;;22.20;44.70;;;;;;4973770;28;20030;-67
2020/12/09 00:58:40;;;;;;;2.58;0.57;;;22.00;42.50;;;;;;4976332;28;20305;-69
2020/12/09 01:01:08;;;;;;;1.70;0.75;;;21.80;42.60;;;;;;4976630;28;20031;-68
2020/12/09 01:03:35;;;;;;;4.90;1.20;;;22.00;39.90;;;;;;4976582;28;20486;-67
2020/12/09 01:06:03;;;;;;;1.48;0.73;;;21.80;41.40;;;;;;4975555;28;20039;-67
2020/12/09 01:08:31;;;;;;;7.97;0.73;;;21.50;43.90;;;;;;4974528;28;20117;-67
2020/12/09 01:10:59;;;;;;;10.40;0.68;;;21.20;46.20;;;;;;4978775;28;20439;-66
2020/12/09 01:13:25;;;;;;;11.10;0.75;;;20.90;47.20;;;;;;4975091;28;20113;-66
2020/12/09 01:15:52;;;;;;;5.75;0.75;;;20.70;45.10;;;;;;4973832;28;20030;-65
2020/12/09 01:18:18;;;;;;;2.28;0.80;;;20.60;44.70;;;;;;4965142;28;20027;-67
2020/12/09 01:20:45;;;;;;;2.85;1.10;;;20.50;45.50;;;;;;4971676;28;20121;-67
2020/12/09 01:23:13;;;;;;;9.77;1.10;;;20.40;43.90;;;;;;4972988;28;20020;-67
2020/12/09 01:25:40;;;;;;;5.75;1.20;;;20.40;44.90;;;;;;4975838;28;20043;-67
2020/12/09 01:28:06;;;;;;;8.77;1.25;;;20.70;42.30;;;;;;4977691;28;20381;-67
2020/12/09 01:30:33;;;;;;;10.45;2.28;;;20.90;42.00;;;;;;4972400;28;20045;-68
2020/12/09 01:33:00;;;;;;;12.73;1.27;;;20.90;43.10;;;;;;4974823;28;20400;-67
2020/12/09 01:35:27;;;;;;;11.20;2.15;;;20.80;44.80;;;;;;4974156;28;20030;-68
2020/12/09 01:37:54;;;;;;;18.80;2.60;;;20.70;45.20;;;;;;4972182;28;20058;-67
2020/12/09 01:43:14;;;;;;;12.85;2.40;;;20.60;46.20;;;;;;4991863;28;20042;-67
2020/12/09 01:45:41;;;;;;;14.05;2.45;;;20.60;47.60;;;;;;4992387;28;20400;-67
2020/12/09 01:48:10;;;;;;;15.27;2.42;;;20.50;49.40;;;;;;4994885;28;20296;-68
2020/12/09 01:50:36;;;;;;;;;;;20.40;50.20;;;;;;4994911;28;20026;-68
2020/12/09 01:53:03;;;;;;;14.25;2.13;;;20.40;50.00;;;;;;4994808;28;20024;-67
2020/12/09 01:55:30;;;;;;;13.23;2.08;;;20.30;50.50;;;;;;4993470;28;20144;-67
2020/12/09 01:57:57;;;;;;;14.52;1.90;;;20.10;50.80;;;;;;4993815;28;20076;-68
2020/12/09 02:00:23;;;;;;;8.65;2.08;;;20.10;51.20;;;;;;4992712;28;20052;-67
2020/12/09 02:02:50;;;;;;;12.68;2.00;;;20.00;51.00;;;;;;4994982;28;20157;-67
2020/12/09 02:05:17;;;;;;;22.88;2.33;;;20.00;51.00;;;;;;4992831;28;20077;-66
2020/12/09 02:07:44;;;;;;;12.68;2.45;;;20.00;51.30;;;;;;4993952;28;20054;-68
2020/12/09 02:10:14;;;;;;;10.48;2.28;;;19.90;51.90;;;;;;4990924;28;20125;-67
2020/12/09 02:12:41;;;;;;;15.35;2.85;;;19.90;53.30;;;;;;4991504;28;20077;-67
2020/12/09 02:15:08;;;;;;;18.40;3.35;;;19.90;51.40;;;;;;4993994;28;20022;-66
2020/12/09 02:17:35;;;;;;;13.05;3.03;;;19.70;53.10;;;;;;4994068;28;20042;-68
2020/12/09 02:20:02;;;;;;;18.27;4.07;;;19.60;53.30;;;;;;4992204;28;20149;-66
2020/12/09 02:22:29;;;;;;;17.75;3.53;;;19.40;54.10;;;;;;4994496;28;20053;-66
2020/12/09 02:24:55;;;;;;;18.95;5.30;;;19.40;56.00;;;;;;4994020;28;20022;-66
2020/12/09 02:27:22;;;;;;;28.98;5.00;;;19.30;57.80;;;;;;4992530;28;20470;-66
2020/12/09 02:29:48;;;;;;;25.10;4.25;;;19.20;59.80;;;;;;4991232;28;20041;-66
2020/12/09 02:32:15;;;;;;;20.75;4.28;;;19.10;61.00;;;;;;4993813;28;20034;-67
2020/12/09 02:34:41;;;;;;;25.58;4.78;;;19.00;63.20;;;;;;4993044;28;20057;-66
2020/12/09 02:37:08;;;;;;;24.30;5.30;;;18.90;63.90;;;;;;4993557;28;20101;-67
2020/12/09 02:39:37;;;;;;;31.92;5.15;;;18.90;66.60;;;;;;4992272;28;20317;-67
2020/12/09 02:42:04;;;;;;;;;;;18.80;68.30;;;;;;4989429;28;20137;-67
2020/12/09 02:44:31;;;;;;;20.73;4.97;;;18.80;69.50;;;;;;4990721;28;20253;-66
2020/12/09 02:46:58;;;;;;;22.70;4.82;;;18.80;69.60;;;;;;4982982;28;20474;-64
2020/12/09 02:49:24;;;;;;;29.17;4.97;;;18.80;70.00;;;;;;4986632;28;20066;-68
2020/12/09 02:51:51;;;;;;;17.38;4.95;;;18.80;70.70;;;;;;4990474;28;20049;-67
2020/12/09 02:54:18;;;;;;;27.52;5.97;;;18.80;71.90;;;;;;4991491;28;20040;-67
2020/12/09 02:56:45;;;;;;;24.35;5.70;;;18.70;74.10;;;;;;4988361;28;20060;-66
2020/12/09 02:59:12;;;;;;;36.72;7.63;;;18.60;75.80;;;;;;4988984;28;20049;-67
2020/12/09 03:01:38;;;;;;;34.53;7.95;;;18.60;77.70;;;;;;4988557;28;20432;-67
2020/12/09 03:04:05;;;;;;;15.48;5.03;;;18.60;78.20;;;;;;4990897;28;20030;-66
2020/12/09 03:06:32;;;;;;;19.73;5.07;;;18.40;79.40;;;;;;4993894;28;20049;-68
2020/12/09 03:08:58;;;;;;;17.55;5.75;;;18.40;80.60;;;;;;4992397;28;20057;-66
2020/12/09 03:11:25;;;;;;;13.73;5.10;;;18.30;80.80;;;;;;4991931;28;20023;-67
2020/12/09 03:13:52;;;;;;;18.35;6.15;;;18.20;81.70;;;;;;4990088;28;20045;-67
2020/12/09 03:16:18;;;;;;;15.48;5.65;;;18.20;82.70;;;;;;4984896;28;20030;-68
2020/12/09 03:18:45;;;;;;;17.60;5.65;;;18.20;83.40;;;;;;4983842;28;20081;-68
2020/12/09 03:21:12;;;;;;;23.95;5.78;;;18.10;84.30;;;;;;4979854;28;20034;-66
2020/12/09 03:23:38;;;;;;;22.30;6.45;;;18.00;85.50;;;;;;4993235;28;20072;-66
2020/12/09 03:26:05;;;;;;;20.75;6.97;;;18.00;86.00;;;;;;4988595;28;20022;-66
2020/12/09 03:28:36;;;;;;;15.23;5.78;;;18.00;86.40;;;;;;4989917;28;20030;-65
2020/12/09 03:31:04;;;;;;;14.52;7.05;;;17.90;87.00;;;;;;4991196;28;20109;-65
2020/12/09 03:33:31;;;;;;;14.67;5.03;;;17.90;87.50;;;;;;5004256;28;20121;-65
2020/12/09 03:35:57;;;;;;;20.88;6.43;;;18.00;87.20;;;;;;4989019;28;20034;-67
2020/12/09 03:38:24;;;;;;;18.80;5.95;;;17.90;87.60;;;;;;4991749;28;20022;-67
2020/12/09 03:40:51;;;;;;;13.60;6.40;;;17.80;88.00;;;;;;4991449;28;20022;-66
2020/12/09 03:43:17;;;;;;;16.38;6.22;;;17.70;88.90;;;;;;4989915;28;20089;-66
2020/12/09 03:45:44;;;;;;;12.23;6.13;;;17.60;89.60;;;;;;4986111;28;20042;-66
2020/12/09 03:48:11;;;;;;;17.58;5.97;;;17.60;88.90;;;;;;4999967;28;20582;-66
2020/12/09 03:50:37;;;;;;;25.73;6.60;;;17.70;88.50;;;;;;4990860;28;20060;-67
2020/12/09 03:53:04;;;;;;;17.33;5.95;;;17.80;88.10;;;;;;4991665;28;20663;-67
2020/12/09 03:55:31;;;;;;;19.90;6.70;;;17.70;87.90;;;;;;4989810;28;20117;-66
2020/12/09 03:58:00;;;;;;;13.75;6.50;;;17.60;88.80;;;;;;4991602;28;20601;-68
2020/12/09 04:00:28;;;;;;;16.15;6.15;;;17.30;90.30;;;;;;4984732;28;20030;-68
2020/12/09 04:02:55;;;;;;;17.52;6.63;;;17.10;91.00;;;;;;4983726;28;20086;-67
2020/12/09 04:05:22;;;;;;;19.80;7.32;;;16.90;91.60;;;;;;4982360;28;20058;-67
2020/12/09 04:07:48;;;;;;;20.92;6.55;;;16.80;92.00;;;;;;4985389;28;20037;-67
2020/12/09 04:10:15;;;;;;;27.92;7.93;;;16.80;91.80;;;;;;4994058;28;20535;-66
2020/12/09 04:12:42;;;;;;;21.23;6.18;;;16.70;91.90;;;;;;4987448;28;20266;-67
2020/12/09 04:15:10;;;;;;;18.98;6.47;;;16.60;91.90;;;;;;4981650;28;20039;-66
2020/12/09 04:17:36;;;;;;;18.13;6.55;;;16.70;91.30;;;;;;4991500;28;20419;-67
2020/12/09 04:20:05;;;;;;;16.83;6.13;;;16.80;91.30;;;;;;4988750;28;20368;-66
2020/12/09 04:22:31;;;;;;;24.42;6.82;;;16.70;91.10;;;;;;4983282;28;20084;-67
2020/12/09 04:24:58;;;;;;;14.57;6.47;;;16.70;90.70;;;;;;4987973;28;20490;-68
2020/12/09 04:27:25;;;;;;;16.98;6.30;;;16.60;90.80;;;;;;4991841;28;20042;-67
2020/12/09 04:29:51;;;;;;;25.85;6.45;;;16.60;90.40;;;;;;4995204;28;20060;-67
2020/12/09 04:32:18;;;;;;;15.73;5.38;;;16.70;90.40;;;;;;5476050;23;20038;-67
2020/12/09 04:34:45;;;;;;;15.80;6.10;;;16.70;89.70;;;;;;5009974;28;20041;-67
2020/12/09 04:37:12;;;;;;;14.73;6.13;;;16.70;90.10;;;;;;4995523;28;20022;-66
2020/12/09 04:39:39;;;;;;;14.90;6.32;;;16.50;90.60;;;;;;5012347;28;20037;-66
2020/12/09 04:42:06;;;;;;;18.83;6.55;;;16.30;90.90;;;;;;4997917;28;20467;-67
2020/12/09 04:44:32;;;;;;;19.73;5.72;;;16.30;91.30;;;;;;5014143;28;20025;-67
2020/12/09 04:47:04;;;;;;;17.50;6.25;;;16.20;91.30;;;;;;5012725;28;20026;-68
2020/12/09 04:49:45;;;;;;;14.13;5.75;;;16.10;91.40;;;;;;5012441;28;20026;-67
2020/12/09 04:52:19;;;;;;;12.63;6.20;;;16.10;91.20;;;;;;5013291;28;20422;-67
2020/12/09 04:54:48;;;;;;;14.65;4.65;;;16.20;90.60;;;;;;5010215;28;20046;-66
2020/12/09 04:57:24;;;;;;;12.98;6.43;;;16.20;90.80;;;;;;5008054;28;20547;-68
2020/12/09 04:59:59;;;;;;;24.42;6.10;;;16.00;91.10;;;;;;5010897;28;20052;-67
2020/12/09 05:02:48;;;;;;;20.33;5.88;;;15.90;91.80;;;;;;5012827;28;20072;-66
2020/12/09 05:05:23;;;;;;;16.23;6.28;;;16.00;91.40;;;;;;5011882;28;20031;-66
2020/12/09 05:07:51;;;;;;;16.38;6.05;;;16.10;90.90;;;;;;5010113;28;20129;-67
2020/12/09 05:10:23;;;;;;;17.80;6.22;;;16.10;90.90;;;;;;5009109;28;20133;-67
2020/12/09 05:12:56;;;;;;;20.38;6.07;;;16.00;91.20;;;;;;5007353;28;20431;-66
2020/12/09 05:15:24;;;;;;;20.90;6.03;;;16.00;90.90;;;;;;5011197;28;20317;-66
2020/12/09 05:18:07;;;;;;;15.50;5.70;;;15.90;91.50;;;;;;5008771;28;20125;-66
2020/12/09 05:20:40;;;;;;;13.05;6.97;;;15.90;91.20;;;;;;5012330;28;20138;-67
2020/12/09 05:23:08;;;;;;;15.60;5.70;;;15.80;91.60;;;;;;5005707;28;20045;-67
2020/12/09 05:25:37;;;;;;;14.45;7.07;;;15.60;91.90;;;;;;5006101;28;20033;-67
2020/12/09 05:28:05;;;;;;;17.30;6.95;;;15.60;92.00;;;;;;5004477;28;20597;-67
2020/12/09 05:30:41;;;;;;;21.55;6.45;;;15.40;92.40;;;;;;4987551;28;20464;-67
2020/12/09 05:33:10;;;;;;;16.55;8.05;;;15.40;92.60;;;;;;4999643;28;20461;-66
2020/12/09 05:35:38;;;;;;;;;;;15.30;92.80;;;;;;5008849;28;20361;-66
2020/12/09 05:38:11;;;;;;;11.25;6.47;;;15.20;93.30;;;;;;5014314;28;19920;-66
2020/12/09 05:40:39;;;;;;;18.08;6.57;;;15.10;93.60;;;;;;5007698;28;20284;-67
2020/12/09 05:43:06;;;;;;;18.52;6.22;;;15.00;93.60;;;;;;5014385;28;20030;-66
2020/12/09 05:45:33;;;;;;;17.10;6.50;;;15.00;93.50;;;;;;5013922;28;20108;-66
2020/12/09 05:48:36;;;;;;;12.18;5.10;;;15.00;93.10;;;;;;5013590;28;20102;-66
2020/12/09 05:51:03;;;;;;;15.43;5.30;;;15.10;92.30;;;;;;4917532;29;20450;-66
2020/12/09 05:53:36;;;;;;;11.85;5.20;;;15.20;92.50;;;;;;4991265;28;20149;-66
2020/12/09 05:56:34;;;;;;;14.65;5.78;;;15.20;92.00;;;;;;5010363;28;20554;-66
2020/12/09 05:59:01;;;;;;;13.02;5.78;;;14.90;92.90;;;;;;4968958;28;20056;-67
2020/12/09 06:01:27;;;;;;;11.45;5.32;;;14.70;93.20;;;;;;5011538;28;20022;-66
2020/12/09 06:03:57;;;;;;;14.32;4.72;;;14.60;93.60;;;;;;5007578;28;20042;-66
2020/12/09 06:06:31;;;;;;;11.65;5.32;;;14.60;93.60;;;;;;5012119;28;20026;-66
2020/12/09 06:09:00;;;;;;;11.10;5.03;;;14.60;93.10;;;;;;5012234;28;20357;-67
2020/12/09 06:11:31;;;;;;;12.68;4.93;;;14.50;93.10;;;;;;5013784;28;20512;-66
2020/12/09 06:13:58;;;;;;;15.57;5.57;;;14.60;92.40;;;;;;5013514;28;20042;-68
2020/12/09 06:16:25;;;;;;;8.63;5.30;;;14.70;91.80;;;;;;5013352;28;20416;-66
2020/12/09 06:18:56;;;;;;;10.10;4.32;;;14.50;91.60;;;;;;5010790;28;20026;-66
2020/12/09 06:21:24;;;;;;;12.07;5.45;;;14.50;92.10;;;;;;4972138;28;20393;-66
2020/12/09 06:23:52;;;;;;;6.57;4.47;;;14.60;91.30;;;;;;5005803;28;20049;-66
2020/12/09 06:26:18;;;;;;;9.68;5.20;;;14.70;90.70;;;;;;5011263;28;20101;-66
2020/12/09 06:28:50;;;;;;;13.45;5.38;;;14.60;90.60;;;;;;5011384;28;20401;-66
2020/12/09 06:31:23;;;;;;;11.30;4.85;;;14.60;90.00;;;;;;5006528;28;20026;-66
2020/12/09 06:33:54;;;;;;;7.50;4.10;;;14.70;89.50;;;;;;5012434;28;20060;-66
2020/12/09 06:36:22;;;;;;;12.88;4.75;;;14.60;88.90;;;;;;5000927;28;20041;-66
2020/12/09 06:39:15;;;;;;;10.67;4.87;;;14.50;87.60;;;;;;5007334;28;20030;-67
2020/12/09 06:41:43;;;;;;;12.55;4.75;;;14.30;89.00;;;;;;5010834;28;20084;-66
2020/12/09 06:44:12;;;;;;;7.57;4.88;;;14.10;90.90;;;;;;5013086;28;20028;-66
2020/12/09 06:46:43;;;;;;;7.63;4.57;;;14.10;90.40;;;;;;5012979;28;20467;-66
2020/12/09 06:49:28;;;;;;;16.38;5.38;;;14.20;90.40;;;;;;5012333;28;20033;-65
2020/12/09 06:51:59;;;;;;;9.38;4.80;;;14.00;90.40;;;;;;5008036;28;20030;-66
2020/12/09 06:54:54;;;;;;;9.50;4.60;;;13.80;91.00;;;;;;5012790;28;20025;-67
2020/12/09 06:57:25;;;;;;;10.63;4.93;;;13.70;90.80;;;;;;4996424;28;20042;-67
2020/12/09 07:00:11;;;;;;;11.75;4.75;;;13.60;90.50;;;;;;5011483;28;20030;-67
2020/12/09 07:02:42;;;;;;;17.45;5.07;;;13.50;91.10;;;;;;5011031;28;20049;-66
2020/12/09 07:05:14;;;;;;;9.45;4.65;;;13.50;90.40;;;;;;5005827;28;20048;-67
2020/12/09 07:07:43;;;;;;;15.30;4.35;;;13.50;90.20;;;;;;4997737;28;20034;-67
2020/12/09 07:10:22;;;;;;;8.32;4.90;;;13.40;89.90;;;;;;5004082;28;20131;-66
2020/12/09 07:13:11;;;;;;;10.45;4.38;;;13.30;90.50;;;;;;5009956;28;20056;-66
2020/12/09 07:15:47;;;;;;;8.70;4.33;;;13.20;90.50;;;;;;4985370;28;20033;-67
2020/12/09 07:18:14;;;;;;;11.95;4.68;;;13.30;90.20;;;;;;5006847;28;20030;-66
2020/12/09 07:20:43;;;;;;;13.48;4.63;;;13.30;90.00;;;;;;5012283;28;20149;-66
2020/12/09 07:23:10;;;;;;;10.98;4.70;;;13.20;89.70;;;;;;5006829;28;20025;-66
2020/12/09 07:25:37;;;;;;;8.07;4.15;;;13.30;89.50;;;;;;5010181;28;20026;-66
2020/12/09 07:28:04;;;;;;;9.27;4.50;;;13.30;88.60;;;;;;5003663;28;20045;-65
2020/12/09 07:30:31;;;;;;;9.10;4.05;;;13.40;88.40;;;;;;5006383;28;20408;-67
2020/12/09 07:32:57;;;;;;;16.27;4.38;;;13.40;87.90;;;;;;4996994;28;20053;-65
2020/12/09 07:35:24;;;;;;;10.63;4.53;;;13.30;88.70;;;;;;4999387;28;20057;-66
2020/12/09 07:37:55;;;;;;;10.18;3.72;;;13.30;88.00;;;;;;4998559;28;20160;-66
2020/12/09 07:40:33;;;;;;;11.63;4.18;;;13.20;89.00;;;;;;5000522;28;20570;-66
2020/12/09 07:43:07;;;;;;;7.70;3.80;;;13.20;89.00;;;;;;4999933;28;20396;-66
2020/12/09 07:45:40;;;;;;;11.07;4.05;;;13.10;88.50;;;;;;4999409;28;20033;-66
2020/12/09 07:48:14;;;;;;;7.90;3.55;;;13.10;89.00;;;;;;4997331;28;20140;-66
2020/12/09 07:50:47;;;;;;;11.27;3.92;;;13.10;89.90;;;;;;4998906;28;20053;-66
2020/12/09 07:53:14;;;;;;;14.50;4.68;;;13.10;89.00;;;;;;4997123;28;20029;-65
2020/12/09 07:55:41;;;;;;;9.35;3.67;;;13.20;87.10;;;;;;4998643;28;20109;-65
2020/12/09 07:58:12;;;;;;;11.52;3.33;;;13.20;87.50;;;;;;4999242;28;20066;-65
2020/12/09 08:00:44;;;;;;;10.20;3.60;;;13.20;84.90;;;;;;5000730;28;20117;-65
2020/12/09 08:03:24;;;;;;;9.02;3.25;;;13.20;85.10;;;;;;5002080;28;20022;-65
2020/12/09 08:05:52;;;;;;;12.55;5.03;;;13.20;86.40;;;;;;5003360;28;20084;-66
2020/12/09 08:08:20;;;;;;;11.75;4.70;;;13.10;87.70;;;;;;4994969;28;20364;-66
2020/12/09 08:10:48;;;;;;;8.35;3.97;;;12.90;88.60;;;;;;5004252;28;20038;-65
2020/12/09 08:13:23;;;;;;;5.60;3.42;;;12.80;90.00;;;;;;5009937;28;20068;-65
2020/12/09 08:16:09;;;;;;;8.88;3.83;;;12.80;89.20;;;;;;5007497;28;20022;-65
2020/12/09 08:18:37;;;;;;;12.35;3.80;;;12.80;88.90;;;;;;5009112;28;20148;-65
2020/12/09 08:21:04;;;;;;;10.57;3.58;;;12.90;86.70;;;;;;5001037;28;20033;-64
2020/12/09 08:23:48;;;;;;;10.32;3.60;;;12.90;86.50;;;;;;5002524;28;20125;-66
2020/12/09 08:26:30;;;;;;;7.07;3.92;;;12.70;87.70;;;;;;4998425;28;20026;-66
2020/12/09 08:28:58;;;;;;;7.97;3.70;;;12.50;89.50;;;;;;4994589;28;20095;-65
2020/12/09 08:31:25;;;;;;;7.40;3.38;;;12.50;89.20;;;;;;4995715;28;20460;-65
2020/12/09 08:33:51;;;;;;;18.65;4.20;;;12.50;89.40;;;;;;5009731;28;20078;-66
2020/12/09 08:36:19;;;;;;;8.00;3.60;;;12.40;89.10;;;;;;5008404;28;20037;-66
2020/12/09 08:38:48;;;;;;;5.70;3.70;;;12.40;88.60;;;;;;5012660;28;20021;-66
2020/12/09 08:41:17;;;;;;;14.18;4.13;;;12.30;87.50;;;;;;5009267;28;20030;-66
2020/12/09 08:43:46;;;;;;;11.90;4.43;;;12.30;87.50;;;;;;5012033;28;20275;-66
2020/12/09 08:46:12;;;;;;;6.35;3.95;;;12.20;88.20;;;;;;5006235;28;20022;-66
2020/12/09 08:48:40;;;;;;;11.90;4.60;;;12.10;89.60;;;;;;5008508;28;20287;-66
2020/12/09 08:51:08;;;;;;;6.43;3.67;;;12.10;88.40;;;;;;5009665;28;20018;-66
2020/12/09 08:53:35;;;;;;;8.95;4.00;;;12.00;88.60;;;;;;5006544;28;20417;-66
2020/12/09 08:56:02;;;;;;;8.90;3.78;;;12.20;86.70;;;;;;5012876;28;20026;-66
2020/12/09 08:58:28;;;;;;;7.95;4.00;;;12.20;86.30;;;;;;5009095;28;20376;-67
2020/12/09 09:00:55;;;;;;;7.47;4.40;;;12.40;84.80;;;;;;5009975;28;20149;-67
2020/12/09 09:03:25;;;;;;;7.90;4.20;;;12.40;83.40;;;;;;5010618;28;20057;-65
2020/12/09 09:05:57;;;;;;;10.02;3.75;;;12.10;87.00;;;;;;5012087;28;20034;-65
2020/12/09 09:08:23;;;;;;;9.02;4.50;;;12.00;88.30;;;;;;5005641;28;20034;-66
2020/12/09 09:10:51;;;;;;;11.65;4.32;;;12.00;86.50;;;;;;5010797;28;20030;-65
2020/12/09 09:13:18;;;;;;;20.95;4.88;;;12.00;86.20;;;;;;5002536;28;20081;-65
2020/12/09 09:15:45;;;;;;;12.60;4.60;;;11.80;88.80;;;;;;5013365;28;20168;-65
2020/12/09 09:18:12;;;;;;;7.63;4.07;;;11.70;88.90;;;;;;5014497;28;20032;-65
2020/12/09 09:20:38;;;;;;;13.32;4.22;;;11.70;88.40;;;;;;5014743;28;20127;-65
2020/12/09 09:23:06;;;;;;;11.73;4.55;;;11.70;88.10;;;;;;5010662;28;20103;-66
2020/12/09 09:25:34;;;;;;;18.40;6.07;;;11.70;88.20;;;;;;5006528;28;20021;-66
2020/12/09 09:28:01;;;;;;;7.77;4.13;;;11.70;91.60;;;;;;5014009;28;20037;-67
2020/12/09 09:30:28;;;;;;;13.80;5.30;;;11.60;89.20;;;;;;5012983;28;20552;-67
2020/12/09 09:35:30;;;;;;;16.67;4.95;;;11.80;87.00;;;;;;5214802;23;20315;-66
2020/12/09 09:37:57;;;;;;;11.77;4.57;;;11.70;84.50;;;;;;5008186;28;20036;-65
2020/12/09 09:40:23;;;;;;;9.82;4.80;;;11.70;86.80;;;;;;5014067;28;20030;-66
2020/12/09 09:42:50;;;;;;;9.05;4.43;;;11.70;86.30;;;;;;5014215;28;20080;-66
2020/12/09 09:45:17;;;;;;;12.90;4.78;;;11.60;86.90;;;;;;5013706;28;20030;-66
2020/12/09 09:47:44;;;;;;;12.90;4.43;;;11.50;89.10;;;;;;5012750;28;20029;-66
2020/12/09 09:50:10;;;;;;;13.32;5.65;;;11.40;88.90;;;;;;5008456;28;20030;-66
2020/12/09 09:52:38;;;;;;;8.50;4.38;;;11.30;89.70;;;;;;5012960;28;20041;-66
2020/12/09 09:55:05;;;;;;;7.35;4.93;;;11.30;88.60;;;;;;5014001;28;20030;-66
2020/12/09 09:57:33;;;;;;;13.60;4.93;;;11.30;90.00;;;;;;5014227;28;20057;-66
2020/12/09 10:00:00;;;;;;;14.98;4.15;;;11.30;87.20;;;;;;5013914;28;20396;-66
2020/12/09 10:02:26;;;;;;;14.75;5.40;;;11.30;88.80;;;;;;5011943;28;20038;-66
2020/12/09 10:04:53;;;;;;;8.85;4.50;;;11.20;91.20;;;;;;5011052;28;20040;-66
2020/12/09 10:07:20;;;;;;;10.70;4.78;;;11.10;90.70;;;;;;5014500;28;20029;-66
2020/12/09 10:09:46;;;;;;;8.93;4.20;;;11.00;91.20;;;;;;5013512;28;20088;-66
2020/12/09 10:12:13;;;;;;;13.05;4.22;;;10.90;91.70;;;;;;5013644;28;20379;-66
2020/12/09 10:14:39;;;;;;;15.75;5.20;;;10.80;91.10;;;;;;5014677;28;20050;-66
2020/12/09 10:17:06;;;;;;;9.40;4.18;;;10.80;91.10;;;;;;5013443;28;20072;-65
2020/12/09 10:19:33;;;;;;;8.15;4.40;;;10.90;90.40;;;;;;5013506;28;20046;-66
2020/12/09 10:22:01;;;;;;;7.07;4.43;;;10.80;90.30;;;;;;5013371;28;20129;-66
2020/12/09 10:24:28;;;;;;;8.80;4.20;;;10.80;89.90;;;;;;5008988;28;20037;-66
2020/12/09 10:26:55;;;;;;;10.57;4.72;;;10.80;90.90;;;;;;5013669;28;20045;-67
2020/12/09 10:29:21;;;;;;;15.18;5.47;;;10.70;91.20;;;;;;5010263;28;20047;-66
2020/12/09 10:31:50;;;;;;;11.90;4.30;;;10.70;91.90;;;;;;5013603;28;20088;-66
2020/12/09 10:34:18;;;;;;;7.47;4.47;;;10.70;91.40;;;;;;5009627;28;20056;-67
2020/12/09 10:36:50;;;;;;;10.63;4.40;;;10.80;90.00;;;;;;5012596;28;20045;-66
2020/12/09 10:39:20;;;;;;;8.23;4.38;;;10.70;90.80;;;;;;5000798;28;20452;-66
2020/12/09 10:41:48;;;;;;;10.05;4.68;;;10.60;91.50;;;;;;5007807;28;20025;-65
2020/12/09 10:44:16;;;;;;;15.40;4.88;;;10.60;90.80;;;;;;5011682;28;20053;-66
2020/12/09 10:46:42;;;;;;;9.77;4.40;;;10.70;89.30;;;;;;5005420;28;20041;-66
2020/12/09 10:49:11;;;;;;;23.35;5.22;;;10.60;91.00;;;;;;4997291;28;20399;-66
2020/12/09 10:51:54;;;;;;;26.05;4.43;;;10.60;91.20;;;;;;4999872;28;20037;-66
2020/12/09 10:54:20;;;;;;;10.23;4.60;;;10.60;90.60;;;;;;4997557;28;20137;-66
2020/12/09 10:56:47;;;;;;;8.45;4.72;;;10.50;91.00;;;;;;4999487;28;20030;-66
2020/12/09 10:59:17;;;;;;;7.90;4.63;;;10.50;91.50;;;;;;4998973;28;20033;-64
2020/12/09 11:01:44;;;;;;;10.70;4.38;;;10.50;90.60;;;;;;4999457;28;20611;-66
2020/12/09 11:04:11;;;;;;;12.07;4.95;;;10.50;90.50;;;;;;5000756;28;20037;-65
2020/12/09 11:06:38;;;;;;;12.10;4.30;;;10.40;91.30;;;;;;4999192;28;20269;-65
2020/12/09 11:09:08;;;;;;;9.15;4.30;;;10.40;90.70;;;;;;4999099;28;20124;-65
2020/12/09 11:11:36;;;;;;;13.65;5.00;;;10.40;91.60;;;;;;5000699;28;20041;-66
2020/12/09 11:14:03;;;;;;;12.57;4.85;;;10.30;91.40;;;;;;4999304;28;20094;-65
2020/12/09 11:16:30;;;;;;;9.15;5.00;;;10.30;91.40;;;;;;4998931;28;20348;-66
2020/12/09 11:18:56;;;;;;;13.52;4.95;;;10.30;91.70;;;;;;4998593;28;20373;-65
2020/12/09 11:21:24;;;;;;;11.50;4.93;;;10.20;91.80;;;;;;4998619;28;20120;-67
2020/12/09 11:23:52;;;;;;;11.43;4.17;;;10.30;91.30;;;;;;4998993;28;20529;-66
2020/12/09 11:26:20;;;;;;;10.38;4.43;;;10.40;90.70;;;;;;4999830;28;20034;-66
2020/12/09 11:28:47;;;;;;;7.80;4.88;;;10.40;90.40;;;;;;4999244;28;20105;-65
2020/12/09 11:31:14;;;;;;;10.13;4.40;;;10.30;92.20;;;;;;4999347;28;20053;-65
2020/12/09 11:33:40;;;;;;;12.40;4.47;;;10.20;92.70;;;;;;4999138;28;20026;-65
2020/12/09 11:36:07;;;;;;;12.82;4.65;;;10.20;92.80;;;;;;4999219;28;20382;-65
2020/12/09 11:38:33;;;;;;;7.43;4.45;;;10.20;93.30;;;;;;4982522;28;20030;-64
2020/12/09 11:41:00;;;;;;;10.65;5.07;;;10.20;92.70;;;;;;4999512;28;20722;-64
2020/12/09 11:43:27;;;;;;;13.05;4.40;;;10.30;92.50;;;;;;4998861;28;20033;-64
2020/12/09 11:45:57;;;;;;;10.73;5.07;;;10.30;92.00;;;;;;4998139;28;20064;-64
2020/12/09 11:48:24;;;;;;;13.63;4.53;;;10.40;91.70;;;;;;4998252;28;20041;-64
2020/12/09 11:50:51;;;;;;;8.15;4.20;;;10.40;90.90;;;;;;5000630;28;20046;-65
2020/12/09 11:53:18;;;;;;;14.10;4.10;;;10.50;88.50;;;;;;4997625;28;20041;-65
2020/12/09 11:55:44;;;;;;;11.50;3.97;;;10.60;91.00;;;;;;5000028;28;20056;-66
2020/12/09 11:58:11;;;;;;;12.57;4.00;;;10.70;91.00;;;;;;4999309;28;20038;-66
2020/12/09 12:00:38;;;;;;;7.93;3.97;;;10.60;91.40;;;;;;4998318;28;20022;-65
2020/12/09 12:03:04;;;;;;;13.73;4.18;;;10.50;91.20;;;;;;4999077;28;20090;-65
2020/12/09 12:05:33;;;;;;;10.68;4.70;;;10.50;91.30;;;;;;4999063;28;20137;-66
2020/12/09 12:08:04;;;;;;;10.95;4.40;;;10.50;91.00;;;;;;4998252;28;20026;-66
2020/12/09 12:10:32;;;;;;;8.88;4.15;;;10.50;91.80;;;;;;4999248;28;20122;-66
2020/12/09 12:12:59;;;;;;;7.72;4.18;;;10.40;91.50;;;;;;5000010;28;20093;-66
2020/12/09 12:15:26;;;;;;;9.90;4.10;;;10.40;91.90;;;;;;4998121;28;20034;-65
2020/12/09 12:17:53;;;;;;;10.75;3.60;;;10.40;91.90;;;;;;4997275;28;20084;-65
2020/12/09 12:20:19;;;;;;;10.60;4.45;;;10.40;92.00;;;;;;4999213;28;20034;-66
2020/12/09 12:22:46;;;;;;;12.70;4.10;;;10.40;91.90;;;;;;4997198;28;20030;-65
2020/12/09 12:25:12;;;;;;;13.60;4.32;;;10.40;92.80;;;;;;5000081;28;20096;-66
2020/12/09 12:27:39;;;;;;;9.15;4.45;;;10.40;91.30;;;;;;4999565;28;20026;-65
2020/12/09 12:30:06;;;;;;;9.48;4.32;;;10.60;91.40;;;;;;4998912;28;20086;-66
2020/12/09 12:32:33;;;;;;;13.75;4.47;;;10.50;91.50;;;;;;4998605;28;20025;-65
2020/12/09 12:34:59;;;;;;;14.82;4.97;;;10.50;90.90;;;;;;4998354;28;20050;-65
2020/12/09 12:37:26;;;;;;;7.30;4.18;;;10.60;90.40;;;;;;4998811;28;20492;-65
2020/12/09 12:39:53;;;;;;;14.82;5.22;;;10.50;90.40;;;;;;4997583;28;20029;-65
2020/12/09 12:42:19;;;;;;;13.82;4.35;;;10.50;91.30;;;;;;4987248;28;20124;-66
2020/12/09 12:44:46;;;;;;;12.10;3.80;;;10.50;91.40;;;;;;4998294;28;20026;-65
2020/12/09 12:47:12;;;;;;;12.73;4.43;;;10.60;90.70;;;;;;4998070;28;20022;-65
2020/12/09 12:49:41;;;;;;;11.23;5.07;;;10.70;88.60;;;;;;4998612;28;20288;-65
2020/12/09 12:52:09;;;;;;;14.48;4.78;;;10.70;89.20;;;;;;5002381;28;20124;-67
2020/12/09 12:54:36;;;;;;;8.15;4.00;;;10.70;86.20;;;;;;4998610;28;20048;-65